createdAt,value
2022-12-19T00:00:45.281Z,1020.5
2022-12-19T00:01:47.362Z,1020.5
2022-12-19T00:02:49.410Z,1020.4
2022-12-19T00:03:51.358Z,1020.4
2022-12-19T00:04:53.222Z,1020.4
2022-12-19T00:05:55.302Z,1020.3
2022-12-19T00:06:57.629Z,1020.1
2022-12-19T00:07:59.221Z,1020.3
2022-12-19T00:09:01.203Z,1020.3
2022-12-19T00:10:03.291Z,1020.2
2022-12-19T00:11:05.262Z,1020.3
2022-12-19T00:12:07.640Z,1020.3
2022-12-19T00:13:09.379Z,1020.3
2022-12-19T00:14:11.242Z,1020.3
2022-12-19T00:15:13.242Z,1020.3
2022-12-19T00:16:15.322Z,1020.2
2022-12-19T00:17:17.222Z,1020.2
2022-12-19T00:18:19.181Z,1020.2
2022-12-19T00:19:21.241Z,1020.2
2022-12-19T00:20:23.263Z,1019.3
2022-12-19T00:21:25.334Z,1019.5
2022-12-19T00:22:27.709Z,1020
2022-12-19T00:23:29.203Z,1020.2
2022-12-19T00:24:31.242Z,1020.2
2022-12-19T00:25:33.241Z,1020.2
2022-12-19T00:26:36.240Z,1020.2
2022-12-19T00:27:38.243Z,1020.1
2022-12-19T00:28:40.344Z,1020.1
2022-12-19T00:29:42.180Z,1020.1
2022-12-19T00:30:44.232Z,1020.1
2022-12-19T00:31:46.307Z,1020.1
2022-12-19T00:32:48.261Z,1020.1
2022-12-19T00:33:50.283Z,1020.1
2022-12-19T00:34:52.261Z,1020.1
2022-12-19T00:35:54.581Z,1020.1
2022-12-19T00:36:57.390Z,1020.2
2022-12-19T00:37:59.401Z,1020.2
2022-12-19T00:39:01.343Z,1019.7
2022-12-19T00:40:03.301Z,1020
2022-12-19T00:41:05.241Z,1020.1
2022-12-19T00:42:07.181Z,1020.2
2022-12-19T00:43:09.261Z,1020.1
2022-12-19T00:44:11.389Z,1020.2
2022-12-19T00:45:13.201Z,1019.1
2022-12-19T00:46:15.295Z,1019.8
2022-12-19T00:47:17.241Z,1020.1
2022-12-19T00:48:19.261Z,1020.1
2022-12-19T00:49:21.221Z,1020
2022-12-19T00:50:23.222Z,1020
2022-12-19T00:51:25.243Z,1020.1
2022-12-19T00:52:27.524Z,1020.1
2022-12-19T00:53:29.302Z,1020
2022-12-19T00:54:31.328Z,1020
2022-12-19T00:55:33.250Z,1020
2022-12-19T00:56:37.449Z,1020
2022-12-19T00:57:37.181Z,1019.9
2022-12-19T00:58:43.480Z,1020
2022-12-19T00:59:41.402Z,1020
2022-12-19T01:00:43.319Z,1019.2
2022-12-19T01:01:45.435Z,1019.8
2022-12-19T01:02:47.377Z,1020
2022-12-19T01:04:19.078Z,1020.1
2022-12-19T01:04:51.261Z,1020.2
2022-12-19T01:05:54.056Z,1020.1
2022-12-19T01:06:57.873Z,1020
2022-12-19T01:07:58.245Z,1020
2022-12-19T01:09:00.260Z,1020
2022-12-19T01:10:02.340Z,1020
2022-12-19T01:11:04.678Z,1020.1
2022-12-19T01:12:06.610Z,1020
2022-12-19T01:13:08.156Z,1020
2022-12-19T01:14:09.142Z,1020
2022-12-19T01:15:10.318Z,1020.1
2022-12-19T01:16:12.253Z,1019.6
2022-12-19T01:17:14.165Z,1019.9
2022-12-19T01:18:16.137Z,1020
2022-12-19T01:19:18.155Z,1020
2022-12-19T01:20:22.264Z,1019.9
2022-12-19T01:21:22.215Z,1019.9
2022-12-19T01:22:24.156Z,1019.9
2022-12-19T01:23:25.264Z,1019.9
2022-12-19T01:24:27.177Z,1019.8
2022-12-19T01:25:29.295Z,1019.8
2022-12-19T01:26:31.165Z,1019.8
2022-12-19T01:27:32.245Z,1019.7
2022-12-19T01:28:34.196Z,1019.6
2022-12-19T01:29:36.647Z,1019.6
2022-12-19T01:30:38.369Z,1019.6
2022-12-19T01:31:40.255Z,1019.5
2022-12-19T01:32:42.281Z,1019.4
2022-12-19T01:33:44.176Z,1019.4
2022-12-19T01:34:46.211Z,1019.4
2022-12-19T01:35:48.198Z,1019.5
2022-12-19T01:36:50.218Z,1019.5
2022-12-19T01:37:54.681Z,1019.4
2022-12-19T01:38:54.416Z,1019.3
2022-12-19T01:39:56.120Z,1019.3
2022-12-19T01:40:57.195Z,1019.4
2022-12-19T01:41:59.217Z,1019.4
2022-12-19T01:43:01.456Z,1018.7
2022-12-19T01:44:03.317Z,1019.2
2022-12-19T01:45:05.555Z,1019.3
2022-12-19T01:46:07.843Z,1019.2
2022-12-19T01:47:09.135Z,1019.2
2022-12-19T01:48:10.235Z,1019.2
2022-12-19T01:49:12.218Z,1019.1
2022-12-19T01:50:14.197Z,1019.1
2022-12-19T01:51:16.216Z,1019
2022-12-19T01:52:20.505Z,1019.1
2022-12-19T01:53:20.494Z,1019.1
2022-12-19T01:54:22.263Z,1019.1
2022-12-19T01:55:24.146Z,1019.1
2022-12-19T01:56:26.248Z,1019.1
2022-12-19T01:57:28.127Z,1019
2022-12-19T01:58:29.106Z,1019
2022-12-19T01:59:31.223Z,1019.1
2022-12-19T02:00:33.215Z,1019
2022-12-19T02:01:35.511Z,1019
2022-12-19T02:02:37.219Z,1019
2022-12-19T02:06:51.295Z,1018.9
2022-12-19T02:07:53.463Z,1018.9
2022-12-19T02:08:55.183Z,1018.9
2022-12-19T02:09:57.765Z,1018.9
2022-12-19T02:10:59.113Z,1019
2022-12-19T02:12:01.272Z,1018.9
2022-12-19T02:13:03.181Z,1018.9
2022-12-19T02:14:05.225Z,1019
2022-12-19T02:15:07.166Z,1019
2022-12-19T02:16:09.227Z,1018.8
2022-12-19T02:17:11.310Z,1018.8
2022-12-19T02:18:13.215Z,1018.8
2022-12-19T02:19:15.150Z,1018.8
2022-12-19T02:20:17.108Z,1018.7
2022-12-19T02:21:19.136Z,1018.7
2022-12-19T02:22:21.200Z,1018.2
2022-12-19T02:23:23.236Z,1018.6
2022-12-19T02:24:25.199Z,1018.8
2022-12-19T02:25:27.201Z,1018.7
2022-12-19T02:26:29.201Z,1018.7
2022-12-19T02:27:33.087Z,1018.6
2022-12-19T02:28:33.205Z,1018.7
2022-12-19T02:29:35.204Z,1018.6
2022-12-19T02:30:37.213Z,1018.7
2022-12-19T02:31:39.213Z,1018.6
2022-12-19T02:32:41.362Z,1018.5
2022-12-19T02:33:43.195Z,1018.6
2022-12-19T02:34:45.300Z,1018.6
2022-12-19T02:35:47.219Z,1018.6
2022-12-19T02:36:49.199Z,1018.5
2022-12-19T02:37:51.183Z,1018.5
2022-12-19T02:38:53.257Z,1018.6
2022-12-19T02:39:55.157Z,1018.6
2022-12-19T02:40:57.182Z,1018.6
2022-12-19T02:41:59.218Z,1018.5
2022-12-19T02:43:01.348Z,1018.5
2022-12-19T02:44:03.524Z,1018.3
2022-12-19T02:45:05.242Z,1018.4
2022-12-19T02:46:07.339Z,1018.5
2022-12-19T02:47:09.244Z,1018.5
2022-12-19T02:48:13.042Z,1018.4
2022-12-19T02:49:13.182Z,1018.4
2022-12-19T02:50:15.263Z,1018.5
2022-12-19T02:51:17.267Z,1018.4
2022-12-19T02:52:19.209Z,1018.3
2022-12-19T02:53:24.088Z,1018.4
2022-12-19T02:54:23.246Z,1018.4
2022-12-19T02:55:25.247Z,1018.3
2022-12-19T02:56:27.276Z,1018.3
2022-12-19T02:57:29.224Z,1018.2
2022-12-19T02:58:30.168Z,1018.2
2022-12-19T02:59:32.231Z,1018.2
2022-12-19T03:00:34.270Z,1018.2
2022-12-19T03:01:36.488Z,1018.3
2022-12-19T03:02:38.372Z,1018.2
2022-12-19T03:03:40.407Z,1018.3
2022-12-19T03:04:42.207Z,1018.3
2022-12-19T03:05:44.251Z,1018.3
2022-12-19T03:06:46.232Z,1018.3
2022-12-19T03:07:48.193Z,1018.2
2022-12-19T03:08:49.212Z,1018.2
2022-12-19T03:09:51.273Z,1018.2
2022-12-19T03:10:53.274Z,1018.2
2022-12-19T03:11:55.185Z,1018.2
2022-12-19T03:12:57.216Z,1018.2
2022-12-19T03:13:59.255Z,1018.2
2022-12-19T03:15:01.270Z,1018.2
2022-12-19T03:16:03.226Z,1017.2
2022-12-19T03:17:05.304Z,1017.8
2022-12-19T03:18:07.236Z,1018
2022-12-19T03:19:09.365Z,1018
2022-12-19T03:20:11.209Z,1017.9
2022-12-19T03:21:13.317Z,1017.8
2022-12-19T03:22:15.317Z,1017.8
2022-12-19T03:23:17.212Z,1017.7
2022-12-19T03:24:19.223Z,1017.8
2022-12-19T03:25:21.237Z,1017.9
2022-12-19T03:26:23.260Z,1017.8
2022-12-19T03:27:25.359Z,1017.8
2022-12-19T03:28:27.303Z,1017.8
2022-12-19T03:29:29.301Z,1017.8
2022-12-19T03:30:31.315Z,1017.9
2022-12-19T03:31:33.219Z,1017.8
2022-12-19T03:32:35.263Z,1017.9
2022-12-19T03:33:37.279Z,1017.8
2022-12-19T03:34:39.445Z,1017.9
2022-12-19T03:35:41.189Z,1017.8
2022-12-19T03:36:42.229Z,1017.8
2022-12-19T03:37:44.240Z,1017.8
2022-12-19T03:38:46.722Z,1017.8
2022-12-19T03:39:48.246Z,1017.8
2022-12-19T03:40:50.262Z,1017.7
2022-12-19T03:41:52.322Z,1017.7
2022-12-19T03:42:54.323Z,1017.8
2022-12-19T03:43:56.312Z,1017.8
2022-12-19T03:44:58.244Z,1017.7
2022-12-19T03:45:59.269Z,1017.8
2022-12-19T03:47:01.285Z,1017.8
2022-12-19T03:48:03.552Z,1017.8
2022-12-19T03:49:05.285Z,1017.7
2022-12-19T03:50:07.386Z,1017.7
2022-12-19T03:51:09.333Z,1017.6
2022-12-19T03:52:11.290Z,1017.7
2022-12-19T03:53:13.312Z,1017.6
2022-12-19T03:54:15.207Z,1017.6
2022-12-19T03:55:17.287Z,1017.6
2022-12-19T03:56:19.265Z,1017.6
2022-12-19T03:57:21.289Z,1017.6
2022-12-19T03:58:23.285Z,1017.6
2022-12-19T03:59:25.267Z,1017.6
2022-12-19T04:00:27.271Z,1017.5
2022-12-19T04:01:29.328Z,1017.5
2022-12-19T04:02:31.295Z,1017.5
2022-12-19T04:03:33.362Z,1017.5
2022-12-19T04:04:35.358Z,1017.4
2022-12-19T04:05:37.396Z,1017.4
2022-12-19T04:06:39.248Z,1017.4
2022-12-19T04:07:41.326Z,1017.4
2022-12-19T04:08:43.287Z,1017.4
2022-12-19T04:09:45.268Z,1017.4
2022-12-19T04:10:47.307Z,1017.4
2022-12-19T04:11:49.309Z,1017.5
2022-12-19T04:12:51.268Z,1017.5
2022-12-19T04:13:53.289Z,1017.5
2022-12-19T04:14:55.368Z,1017.5
2022-12-19T04:15:57.320Z,1017.5
2022-12-19T04:16:59.224Z,1017.4
2022-12-19T04:18:01.328Z,1017.3
2022-12-19T04:19:03.310Z,1017.4
2022-12-19T04:20:05.335Z,1017.4
2022-12-19T04:21:07.427Z,1017.5
2022-12-19T04:22:09.189Z,1017.4
2022-12-19T04:23:11.245Z,1017.4
2022-12-19T04:24:13.311Z,1017.4
2022-12-19T04:25:15.287Z,1017.4
2022-12-19T04:26:17.206Z,1017.4
2022-12-19T04:27:19.288Z,1017.5
2022-12-19T04:28:21.289Z,1017.4
2022-12-19T04:29:23.808Z,1017.3
2022-12-19T04:30:25.328Z,1017.3
2022-12-19T04:31:27.326Z,1017.4
2022-12-19T04:32:29.300Z,1017.3
2022-12-19T04:33:31.290Z,1017.3
2022-12-19T04:34:33.251Z,1017.4
2022-12-19T04:35:35.288Z,1017.3
2022-12-19T04:36:37.455Z,1017.4
2022-12-19T04:37:39.231Z,1017.3
2022-12-19T04:38:40.167Z,1017.2
2022-12-19T04:39:41.276Z,1016.5
2022-12-19T04:40:43.315Z,1017.1
2022-12-19T04:41:45.262Z,1017.2
2022-12-19T04:42:47.276Z,1017.2
2022-12-19T04:43:49.239Z,1017.2
2022-12-19T04:44:51.315Z,1017.1
2022-12-19T04:45:57.226Z,1017.2
2022-12-19T04:46:55.389Z,1017.1
2022-12-19T04:47:57.249Z,1017
2022-12-19T04:48:58.257Z,1017.1
2022-12-19T04:50:00.254Z,1017.1
2022-12-19T04:51:02.328Z,1017.1
2022-12-19T04:52:04.392Z,1017.1
2022-12-19T04:53:06.345Z,1017.1
2022-12-19T04:54:08.268Z,1017.1
2022-12-19T04:55:09.307Z,1017
2022-12-19T04:56:11.308Z,1017
2022-12-19T04:57:13.230Z,1017
2022-12-19T04:58:20.352Z,1016.9
2022-12-19T04:59:17.287Z,1016.9
2022-12-19T05:00:19.310Z,1016.9
2022-12-19T05:01:21.418Z,1016.9
2022-12-19T05:02:23.400Z,1016.8
2022-12-19T05:03:25.443Z,1016.9
2022-12-19T05:04:27.372Z,1016.8
2022-12-19T05:05:29.247Z,1016.9
2022-12-19T05:06:30.215Z,1016.9
2022-12-19T05:07:32.470Z,1017
2022-12-19T05:08:34.244Z,1016.9
2022-12-19T05:09:36.298Z,1016.9
2022-12-19T05:10:38.186Z,1016.9
2022-12-19T05:11:40.233Z,1016.9
2022-12-19T05:12:42.288Z,1016.9
2022-12-19T05:13:44.333Z,1017
2022-12-19T05:14:46.349Z,1017
2022-12-19T05:15:48.273Z,1017
2022-12-19T05:16:50.286Z,1017
2022-12-19T05:17:52.309Z,1017
2022-12-19T05:18:54.265Z,1017
2022-12-19T05:19:56.338Z,1017
2022-12-19T05:20:58.246Z,1017.1
2022-12-19T05:21:59.267Z,1017.1
2022-12-19T05:23:03.865Z,1017.1
2022-12-19T05:24:02.265Z,1017
2022-12-19T05:25:04.379Z,1017.1
2022-12-19T05:26:06.289Z,1017.1
2022-12-19T05:27:08.212Z,1017
2022-12-19T05:28:09.305Z,1017
2022-12-19T05:29:11.284Z,1017
2022-12-19T05:30:13.378Z,1016.9
2022-12-19T05:31:15.410Z,1016.9
2022-12-19T05:32:17.283Z,1016.8
2022-12-19T05:33:19.333Z,1016.8
2022-12-19T05:34:21.204Z,1016.8
2022-12-19T05:35:22.243Z,1016.8
2022-12-19T05:36:26.462Z,1016.8
2022-12-19T05:37:25.237Z,1016.8
2022-12-19T05:38:27.448Z,1016.8
2022-12-19T05:39:29.325Z,1016.8
2022-12-19T05:40:31.265Z,1016.8
2022-12-19T05:41:33.301Z,1016.8
2022-12-19T05:42:35.291Z,1016.8
2022-12-19T05:43:37.316Z,1016.8
2022-12-19T05:44:39.336Z,1016.8
2022-12-19T05:45:41.323Z,1016.7
2022-12-19T05:46:43.441Z,1016.7
2022-12-19T05:47:45.303Z,1016.7
2022-12-19T05:48:47.218Z,1016.7
2022-12-19T05:49:49.306Z,1016.6
2022-12-19T05:50:51.268Z,1016.6
2022-12-19T05:51:53.284Z,1016.6
2022-12-19T05:52:55.321Z,1016.7
2022-12-19T05:53:57.504Z,1016.7
2022-12-19T05:54:59.282Z,1016.7
2022-12-19T05:56:01.422Z,1016.7
2022-12-19T05:57:03.292Z,1016.6
2022-12-19T05:58:05.327Z,1016.7
2022-12-19T05:59:07.341Z,1016.5
2022-12-19T06:00:09.403Z,1016.5
2022-12-19T06:01:11.309Z,1016.5
2022-12-19T06:02:13.313Z,1016.4
2022-12-19T06:03:15.374Z,1016.4
2022-12-19T06:04:17.261Z,1016.4
2022-12-19T06:05:19.308Z,1016.4
2022-12-19T06:06:21.345Z,1016.4
2022-12-19T06:07:23.266Z,1016.3
2022-12-19T06:08:25.320Z,1016.3
2022-12-19T06:09:27.388Z,1016.4
2022-12-19T06:10:29.516Z,1016.4
2022-12-19T06:11:31.342Z,1016.4
2022-12-19T06:12:33.361Z,1016.5
2022-12-19T06:13:35.275Z,1016.5
2022-12-19T06:14:37.485Z,1016.4
2022-12-19T06:15:39.304Z,1016.4
2022-12-19T06:16:41.477Z,1016.4
2022-12-19T06:17:43.340Z,1016.4
2022-12-19T06:18:45.718Z,1016.4
2022-12-19T06:19:47.383Z,1016.5
2022-12-19T06:20:49.398Z,1016.9
2022-12-19T06:21:51.346Z,1016.7
2022-12-19T06:22:53.407Z,1016.6
2022-12-19T06:23:55.229Z,1016.7
2022-12-19T06:24:56.456Z,1016.6
2022-12-19T06:25:58.351Z,1016.6
2022-12-19T06:27:00.378Z,1016.5
2022-12-19T06:28:02.321Z,1016.5
2022-12-19T06:29:04.339Z,1016.6
2022-12-19T06:30:06.357Z,1016.5
2022-12-19T06:31:08.397Z,1016.6
2022-12-19T06:32:10.330Z,1016.5
2022-12-19T06:33:12.319Z,1016.5
2022-12-19T06:34:27.261Z,1016.6
2022-12-19T06:35:16.361Z,1016.6
2022-12-19T06:36:18.358Z,1016.6
2022-12-19T06:37:20.341Z,1016.7
2022-12-19T06:38:22.300Z,1016.6
2022-12-19T06:39:24.316Z,1016.6
2022-12-19T06:40:26.533Z,1016.7
2022-12-19T06:41:28.437Z,1016.7
2022-12-19T06:42:30.326Z,1015.8
2022-12-19T06:43:32.330Z,1016.4
2022-12-19T06:44:34.379Z,1016.5
2022-12-19T06:45:36.455Z,1016.5
2022-12-19T06:46:38.463Z,1016.5
2022-12-19T06:47:40.337Z,1016.6
2022-12-19T06:48:42.337Z,1016.6
2022-12-19T06:49:44.353Z,1016.4
2022-12-19T06:50:46.277Z,1016.5
2022-12-19T06:51:48.392Z,1016.5
2022-12-19T06:52:50.703Z,1016.4
2022-12-19T06:53:52.397Z,1015.5
2022-12-19T06:54:54.357Z,1016.1
2022-12-19T06:55:56.470Z,1016.3
2022-12-19T06:56:58.381Z,1016.4
2022-12-19T06:58:00.297Z,1016.4
2022-12-19T06:59:02.297Z,1016.4
2022-12-19T07:00:04.417Z,1016.5
2022-12-19T07:01:06.559Z,1016.5
2022-12-19T07:02:08.568Z,1016.5
2022-12-19T07:03:10.388Z,1016.4
2022-12-19T07:04:11.416Z,1016.5
2022-12-19T07:05:13.436Z,1016.5
2022-12-19T07:06:15.379Z,1016.4
2022-12-19T07:07:17.319Z,1016.3
2022-12-19T07:08:19.356Z,1016.3
2022-12-19T07:09:21.356Z,1016.3
2022-12-19T07:10:23.345Z,1016.3
2022-12-19T07:11:25.469Z,1016.4
2022-12-19T07:12:27.376Z,1016.3
2022-12-19T07:13:29.555Z,1016.3
2022-12-19T07:14:31.224Z,1016.2
2022-12-19T07:15:33.360Z,1016.3
2022-12-19T07:16:35.345Z,1016.2
2022-12-19T07:17:37.358Z,1016.2
2022-12-19T07:18:39.314Z,1016.2
2022-12-19T07:19:41.325Z,1016.2
2022-12-19T07:20:45.134Z,1016.3
2022-12-19T07:21:45.365Z,1016.3
2022-12-19T07:22:47.237Z,1016.2
2022-12-19T07:23:48.246Z,1016.2
2022-12-19T07:24:49.195Z,1016.2
2022-12-19T07:25:50.320Z,1016.1
2022-12-19T07:26:51.454Z,1016.1
2022-12-19T07:27:53.360Z,1016.1
2022-12-19T07:28:55.335Z,1016.1
2022-12-19T07:29:57.267Z,1016.1
2022-12-19T07:30:58.314Z,1016.1
2022-12-19T07:32:00.435Z,1016.1
2022-12-19T07:33:02.323Z,1016
2022-12-19T07:34:04.359Z,1016.1
2022-12-19T07:35:06.422Z,1016.1
2022-12-19T07:36:08.353Z,1016.2
2022-12-19T07:37:10.375Z,1016.1
2022-12-19T07:38:12.437Z,1016.1
2022-12-19T07:39:14.364Z,1016.1
2022-12-19T07:40:16.436Z,1016.1
2022-12-19T07:41:18.306Z,1016.1
2022-12-19T07:42:20.455Z,1016.1
2022-12-19T07:43:22.350Z,1016.1
2022-12-19T07:44:24.393Z,1016.1
2022-12-19T07:45:26.468Z,1016.1
2022-12-19T07:46:28.296Z,1016
2022-12-19T07:47:30.299Z,1016
2022-12-19T07:48:32.459Z,1016
2022-12-19T07:49:34.321Z,1016.1
2022-12-19T07:50:36.293Z,1016
2022-12-19T07:51:37.345Z,1016.1
2022-12-19T07:52:39.298Z,1015.9
2022-12-19T07:53:41.407Z,1015.9
2022-12-19T07:54:43.428Z,1015.9
2022-12-19T07:55:45.334Z,1015.9
2022-12-19T07:56:47.340Z,1015.8
2022-12-19T07:57:49.494Z,1015.9
2022-12-19T07:58:51.437Z,1015.9
2022-12-19T07:59:53.375Z,1016
2022-12-19T08:00:55.478Z,1015.9
2022-12-19T08:01:57.521Z,1015.9
2022-12-19T08:02:59.480Z,1016
2022-12-19T08:04:01.354Z,1016
2022-12-19T08:05:03.394Z,1016
2022-12-19T08:06:05.538Z,1016
2022-12-19T08:07:07.380Z,1015.9
2022-12-19T08:08:09.345Z,1015.9
2022-12-19T08:09:11.359Z,1015.9
2022-12-19T08:10:13.336Z,1015.9
2022-12-19T08:11:15.435Z,1015.1
2022-12-19T08:12:17.374Z,1015.6
2022-12-19T08:13:19.478Z,1015.7
2022-12-19T08:14:21.375Z,1015.8
2022-12-19T08:15:24.692Z,1015.9
2022-12-19T08:16:27.371Z,1015.8
2022-12-19T08:17:29.584Z,1015.8
2022-12-19T08:18:31.295Z,1015.8
2022-12-19T08:19:33.355Z,1015.9
2022-12-19T08:20:35.406Z,1015.8
2022-12-19T08:21:37.357Z,1015.8
2022-12-19T08:22:39.448Z,1015.8
2022-12-19T08:23:41.486Z,1015.8
2022-12-19T08:24:43.384Z,1015.8
2022-12-19T08:25:45.360Z,1015.8
2022-12-19T08:26:47.799Z,1015.7
2022-12-19T08:27:49.402Z,1015.7
2022-12-19T08:28:51.384Z,1015.3
2022-12-19T08:29:53.321Z,1015.6
2022-12-19T08:30:55.453Z,1015.6
2022-12-19T08:31:57.347Z,1015.6
2022-12-19T08:32:59.451Z,1015.6
2022-12-19T08:34:01.395Z,1015.6
2022-12-19T08:35:03.385Z,1015.5
2022-12-19T08:36:05.385Z,1015.6
2022-12-19T08:37:07.338Z,1015.6
2022-12-19T08:38:08.436Z,1015.5
2022-12-19T08:39:10.376Z,1015.5
2022-12-19T08:40:12.450Z,1015.5
2022-12-19T08:41:14.377Z,1015.5
2022-12-19T08:42:16.333Z,1015.5
2022-12-19T08:43:18.396Z,1015.5
2022-12-19T08:44:20.541Z,1015.5
2022-12-19T08:45:22.318Z,1015.5
2022-12-19T08:46:24.372Z,1015.5
2022-12-19T08:47:26.316Z,1015.4
2022-12-19T08:48:28.397Z,1015.4
2022-12-19T08:49:30.436Z,1015.5
2022-12-19T08:50:32.417Z,1015.5
2022-12-19T08:51:34.401Z,1015.4
2022-12-19T08:52:36.339Z,1015.4
2022-12-19T08:53:38.352Z,1015.4
2022-12-19T08:54:39.378Z,1015.5
2022-12-19T08:55:41.370Z,1015.5
2022-12-19T08:56:46.200Z,1015.4
2022-12-19T08:57:45.383Z,1015.4
2022-12-19T08:58:47.435Z,1015.4
2022-12-19T08:59:49.519Z,1015.4
2022-12-19T09:00:55.668Z,1015.4
2022-12-19T09:01:53.417Z,1015.4
2022-12-19T09:02:54.498Z,1015.3
2022-12-19T09:04:01.629Z,1015.3
2022-12-19T09:05:11.815Z,1015.3
2022-12-19T09:06:06.897Z,1015.3
2022-12-19T09:07:02.416Z,1015.3
2022-12-19T09:08:04.399Z,1015.3
2022-12-19T09:09:06.400Z,1015.3
2022-12-19T09:10:08.404Z,1015.3
2022-12-19T09:11:10.458Z,1015.3
2022-12-19T09:12:15.395Z,1015.3
2022-12-19T09:13:17.379Z,1015.3
2022-12-19T09:14:20.469Z,1015.3
2022-12-19T09:15:21.462Z,1015.2
2022-12-19T09:16:23.401Z,1015.2
2022-12-19T09:17:25.457Z,1015.2
2022-12-19T09:18:27.437Z,1015.2
2022-12-19T09:19:29.825Z,1015.2
2022-12-19T09:20:31.401Z,1015.2
2022-12-19T09:21:33.381Z,1015.1
2022-12-19T09:22:35.421Z,1015.3
2022-12-19T09:23:37.480Z,1015.2
2022-12-19T09:24:39.437Z,1015.1
2022-12-19T09:25:41.396Z,1015.1
2022-12-19T09:26:43.376Z,1015.1
2022-12-19T09:28:17.823Z,1015.1
2022-12-19T09:28:47.519Z,1015.1
2022-12-19T09:29:49.417Z,1015.1
2022-12-19T09:30:51.682Z,1015.1
2022-12-19T09:31:53.861Z,1015.1
2022-12-19T09:32:55.342Z,1015.1
2022-12-19T09:33:57.450Z,1015.1
2022-12-19T09:34:59.398Z,1015.1
2022-12-19T09:36:01.430Z,1015.1
2022-12-19T09:37:03.440Z,1015
2022-12-19T09:38:05.501Z,1014.3
2022-12-19T09:39:07.404Z,1014.9
2022-12-19T09:40:09.476Z,1015
2022-12-19T09:41:11.408Z,1015
2022-12-19T09:42:13.382Z,1015
2022-12-19T09:43:15.430Z,1015
2022-12-19T09:44:17.375Z,1015
2022-12-19T09:45:23.319Z,1014.9
2022-12-19T09:46:21.619Z,1014.9
2022-12-19T09:47:23.390Z,1014.9
2022-12-19T09:48:25.308Z,1014.9
2022-12-19T09:49:27.411Z,1014.8
2022-12-19T09:50:29.738Z,1014.8
2022-12-19T09:51:34.339Z,1014.8
2022-12-19T09:52:36.566Z,1014.9
2022-12-19T09:53:38.505Z,1014.8
2022-12-19T09:54:40.429Z,1014.8
2022-12-19T09:55:42.380Z,1014.7
2022-12-19T09:56:46.087Z,1014.8
2022-12-19T09:57:46.378Z,1014.7
2022-12-19T09:58:47.620Z,1014.8
2022-12-19T09:59:50.101Z,1014.7
2022-12-19T10:00:55.152Z,1014.7
2022-12-19T10:01:53.591Z,1014.6
2022-12-19T10:02:55.486Z,1014.6
2022-12-19T10:03:57.468Z,1014.6
2022-12-19T10:05:01.344Z,1014.5
2022-12-19T10:07:00.716Z,1014.6
2022-12-19T10:07:16.533Z,1014.5
2022-12-19T10:08:08.997Z,1014.5
2022-12-19T10:09:23.582Z,1014.6
2022-12-19T10:11:26.638Z,1014.5
2022-12-19T10:12:33.651Z,1014.5
2022-12-19T10:12:42.037Z,1014.6
2022-12-19T10:13:16.273Z,1014.6
2022-12-19T10:14:17.363Z,1014.6
2022-12-19T10:15:18.586Z,1014.6
2022-12-19T10:16:20.440Z,1014.5
2022-12-19T10:17:24.416Z,1014.4
2022-12-19T10:18:24.416Z,1014.3
2022-12-19T10:19:26.418Z,1014.4
2022-12-19T10:20:28.658Z,1014.3
2022-12-19T10:21:51.167Z,1014.3
2022-12-19T10:22:32.421Z,1014.2
2022-12-19T10:23:34.472Z,1014.2
2022-12-19T10:24:36.437Z,1014.3
2022-12-19T10:25:38.418Z,1014.3
2022-12-19T10:26:40.469Z,1014.3
2022-12-19T10:27:43.943Z,1014.3
2022-12-19T10:28:44.453Z,1014.2
2022-12-19T10:29:46.392Z,1014.2
2022-12-19T10:30:47.500Z,1014.2
2022-12-19T10:31:51.971Z,1014.2
2022-12-19T10:32:51.498Z,1014.2
2022-12-19T10:33:53.505Z,1014.2
2022-12-19T10:34:55.439Z,1014.2
2022-12-19T10:36:02.454Z,1014.2
2022-12-19T10:37:25.413Z,1014.1
2022-12-19T10:38:01.509Z,1014.1
2022-12-19T10:39:03.404Z,1014.1
2022-12-19T10:40:07.367Z,1014.2
2022-12-19T10:41:08.573Z,1014.1
2022-12-19T10:42:10.803Z,1014.1
2022-12-19T10:43:17.183Z,1014.1
2022-12-19T10:44:14.440Z,1014
2022-12-19T10:45:16.416Z,1014
2022-12-19T10:46:18.559Z,1014.1
2022-12-19T10:47:20.416Z,1014
2022-12-19T10:48:29.554Z,1014
2022-12-19T10:49:24.521Z,1014
2022-12-19T10:50:26.391Z,1014
2022-12-19T10:51:28.497Z,1014
2022-12-19T10:52:30.465Z,1014
2022-12-19T10:53:32.597Z,1013.9
2022-12-19T10:54:34.653Z,1013.9
2022-12-19T10:55:36.479Z,1014
2022-12-19T10:56:38.442Z,1013.9
2022-12-19T10:57:40.479Z,1013.9
2022-12-19T10:58:42.450Z,1013.9
2022-12-19T10:59:44.380Z,1013.9
2022-12-19T11:00:46.437Z,1013.9
2022-12-19T11:01:51.790Z,1013.9
2022-12-19T11:02:50.520Z,1013.8
2022-12-19T11:03:52.597Z,1013.8
2022-12-19T11:04:54.506Z,1013.7
2022-12-19T11:05:57.948Z,1013.7
2022-12-19T11:06:58.437Z,1013.6
2022-12-19T11:08:00.465Z,1013.7
2022-12-19T11:09:02.442Z,1013.7
2022-12-19T11:10:15.913Z,1013.7
2022-12-19T11:12:16.039Z,1013.7
2022-12-19T11:13:14.047Z,1013.7
2022-12-19T11:15:49.722Z,1012.9
2022-12-19T11:16:49.215Z,1013.4
2022-12-19T11:17:06.183Z,1013.6
2022-12-19T11:18:37.751Z,1013.6
2022-12-19T11:20:00.678Z,1013.6
2022-12-19T11:21:10.988Z,1013.5
2022-12-19T11:23:58.040Z,1013.6
2022-12-19T11:24:16.316Z,1013.6
2022-12-19T11:27:48.725Z,1013.5
2022-12-19T11:29:28.001Z,1013.5
2022-12-19T11:29:28.957Z,1013.3
2022-12-19T11:29:29.088Z,1013.4
2022-12-19T11:29:29.544Z,1013.3
2022-12-19T11:30:22.314Z,1013.3
2022-12-19T11:30:23.839Z,1013.5
2022-12-19T11:30:24.115Z,1013.3
2022-12-19T11:32:48.912Z,1013.2
2022-12-19T11:33:50.509Z,1013.3
2022-12-19T11:34:53.296Z,1013.3
2022-12-19T11:35:54.511Z,1013.3
2022-12-19T11:36:56.417Z,1013.2
2022-12-19T11:37:58.452Z,1013.3
2022-12-19T11:39:00.463Z,1013.2
2022-12-19T11:40:02.577Z,1013.2
2022-12-19T11:41:04.484Z,1013.2
2022-12-19T11:42:06.489Z,1013.2
2022-12-19T11:43:42.982Z,1013.2
2022-12-19T11:44:10.517Z,1013.2
2022-12-19T11:45:12.493Z,1013.2
2022-12-19T11:46:19.549Z,1012.8
2022-12-19T11:47:16.418Z,1012.9
2022-12-19T11:48:18.478Z,1013
2022-12-19T11:49:20.514Z,1013
2022-12-19T11:50:22.646Z,1013
2022-12-19T11:51:24.422Z,1013
2022-12-19T11:53:28.497Z,1013
2022-12-19T11:54:30.986Z,1013
2022-12-19T11:55:32.438Z,1013
2022-12-19T11:56:34.459Z,1012.9
2022-12-19T11:57:36.542Z,1012.9
2022-12-19T11:58:38.543Z,1012.9
2022-12-19T11:59:40.486Z,1012.9
2022-12-19T12:00:42.423Z,1012.9
2022-12-19T12:01:44.658Z,1012.9
2022-12-19T12:02:46.546Z,1012.8
2022-12-19T12:04:00.391Z,1012.8
2022-12-19T12:04:50.463Z,1012.8
2022-12-19T12:05:52.609Z,1012.8
2022-12-19T12:06:54.551Z,1012.9
2022-12-19T12:08:09.094Z,1012.8
2022-12-19T12:10:11.995Z,1012.8
2022-12-19T12:12:33.480Z,1012.8
2022-12-19T12:13:14.874Z,1012.9
2022-12-19T12:15:34.588Z,1012.8
2022-12-19T12:16:22.887Z,1012.9
2022-12-19T12:17:53.229Z,1013
2022-12-19T12:19:11.138Z,1013
2022-12-19T12:21:40.403Z,1013
2022-12-19T12:22:49.072Z,1013.1
2022-12-19T12:22:49.083Z,1013
2022-12-19T12:26:36.154Z,1013
2022-12-19T12:27:01.940Z,1013
2022-12-19T12:27:46.193Z,1013
2022-12-19T12:31:03.219Z,1013.1
2022-12-19T12:31:33.052Z,1013.1
2022-12-19T12:31:33.839Z,1012.9
2022-12-19T12:31:35.414Z,1013
2022-12-19T12:31:35.650Z,1013.1
2022-12-19T12:31:36.475Z,1013.1
2022-12-19T12:31:36.753Z,1012.9
2022-12-19T12:31:37.920Z,1013.1
2022-12-19T12:31:37.967Z,1013
2022-12-19T12:35:25.461Z,1012.9
2022-12-19T12:35:26.657Z,1012.9
2022-12-19T12:35:28.216Z,1012.8
2022-12-19T12:38:18.577Z,1012.8
2022-12-19T12:39:57.503Z,1012.8
2022-12-19T12:40:59.679Z,1012.8
2022-12-19T12:42:01.528Z,1012.7
2022-12-19T12:43:03.600Z,1012.7
2022-12-19T12:44:05.561Z,1012.6
2022-12-19T12:45:07.520Z,1012.7
2022-12-19T12:46:09.526Z,1012.8
2022-12-19T12:47:11.622Z,1012.7
2022-12-19T12:48:13.495Z,1012
2022-12-19T12:49:15.523Z,1012.5
2022-12-19T12:50:17.524Z,1012.5
2022-12-19T12:51:19.439Z,1012.5
2022-12-19T12:52:21.508Z,1012.5
2022-12-19T12:53:23.562Z,1012.4
2022-12-19T12:54:25.559Z,1012.3
2022-12-19T12:55:27.508Z,1012.3
2022-12-19T12:56:29.451Z,1012.3
2022-12-19T12:57:31.904Z,1012.2
2022-12-19T12:58:33.460Z,1012.4
2022-12-19T12:59:34.517Z,1012.4
2022-12-19T13:00:36.527Z,1012.4
2022-12-19T13:01:38.664Z,1012.4
2022-12-19T13:02:40.722Z,1012.4
2022-12-19T13:03:42.456Z,1012.4
2022-12-19T13:04:45.262Z,1012.4
2022-12-19T13:05:46.480Z,1012.4
2022-12-19T13:06:48.606Z,1012.4
2022-12-19T13:07:50.507Z,1012.5
2022-12-19T13:08:52.452Z,1012.5
2022-12-19T13:09:54.477Z,1012.4
2022-12-19T13:10:56.498Z,1012.4